sensor_id;sensor_type;location;lat;lon;timestamp;pressure;altitude;pressure_sealevel;temperature;humidity
18022;BME280;9136;48.822;7.966;2023-07-31T00:01:33;100286.00;;;17.48;100.00
18022;BME280;9136;48.822;7.966;2023-07-31T00:04:29;100280.22;;;17.41;100.00
18022;BME280;9136;48.822;7.966;2023-07-31T00:07:18;100254.56;;;17.26;100.00
18022;BME280;9136;48.822;7.966;2023-07-31T00:10:09;100250.50;;;17.20;100.00
18022;BME280;9136;48.822;7.966;2023-07-31T00:13:04;100250.66;;;17.17;100.00
18022;BME280;9136;48.822;7.966;2023-07-31T00:15:58;100255.03;;;17.18;100.00
18022;BME280;9136;48.822;7.966;2023-07-31T00:18:57;100246.84;;;17.07;100.00
18022;BME280;9136;48.822;7.966;2023-07-31T00:22:04;100247.78;;;17.06;100.00
18022;BME280;9136;48.822;7.966;2023-07-31T00:24:56;100256.34;;;17.11;100.00
18022;BME280;9136;48.822;7.966;2023-07-31T00:27:53;100223.97;;;16.90;100.00
18022;BME280;9136;48.822;7.966;2023-07-31T00:30:45;100270.66;;;17.08;100.00
18022;BME280;9136;48.822;7.966;2023-07-31T00:33:42;100242.75;;;17.01;100.00
18022;BME280;9136;48.822;7.966;2023-07-31T00:36:31;100262.69;;;17.08;100.00
18022;BME280;9136;48.822;7.966;2023-07-31T00:39:33;100254.31;;;17.00;100.00
18022;BME280;9136;48.822;7.966;2023-07-31T00:42:21;100259.13;;;16.94;100.00
18022;BME280;9136;48.822;7.966;2023-07-31T00:45:13;100230.75;;;16.80;100.00
18022;BME280;9136;48.822;7.966;2023-07-31T00:48:07;100263.28;;;16.98;100.00
18022;BME280;9136;48.822;7.966;2023-07-31T00:51:00;100244.69;;;16.83;100.00
18022;BME280;9136;48.822;7.966;2023-07-31T00:53:49;100224.41;;;16.82;100.00
18022;BME280;9136;48.822;7.966;2023-07-31T00:56:48;100237.13;;;16.92;100.00
18022;BME280;9136;48.822;7.966;2023-07-31T00:59:39;100222.19;;;16.75;100.00
18022;BME280;9136;48.822;7.966;2023-07-31T01:02:30;100236.31;;;16.75;100.00
18022;BME280;9136;48.822;7.966;2023-07-31T01:05:33;100207.13;;;16.59;100.00
18022;BME280;9136;48.822;7.966;2023-07-31T01:08:36;100192.25;;;16.73;100.00
18022;BME280;9136;48.822;7.966;2023-07-31T01:11:52;100205.75;;;16.84;100.00
18022;BME280;9136;48.822;7.966;2023-07-31T01:15:04;100210.44;;;16.79;100.00
18022;BME280;9136;48.822;7.966;2023-07-31T01:17:52;100215.38;;;16.71;100.00
18022;BME280;9136;48.822;7.966;2023-07-31T01:20:53;100225.25;;;16.83;100.00
18022;BME280;9136;48.822;7.966;2023-07-31T01:23:56;100241.09;;;16.84;100.00
18022;BME280;9136;48.822;7.966;2023-07-31T01:27:01;100242.88;;;16.84;100.00
18022;BME280;9136;48.822;7.966;2023-07-31T01:29:58;100242.56;;;16.74;100.00
18022;BME280;9136;48.822;7.966;2023-07-31T01:32:58;100222.56;;;16.53;100.00
18022;BME280;9136;48.822;7.966;2023-07-31T01:35:53;100225.97;;;16.39;100.00
18022;BME280;9136;48.822;7.966;2023-07-31T01:38:42;100219.66;;;16.26;100.00
18022;BME280;9136;48.822;7.966;2023-07-31T01:41:39;100226.25;;;16.19;100.00
18022;BME280;9136;48.822;7.966;2023-07-31T01:44:54;100195.63;;;15.97;100.00
18022;BME280;9136;48.822;7.966;2023-07-31T01:47:41;100209.56;;;16.17;100.00
18022;BME280;9136;48.822;7.966;2023-07-31T01:50:43;100186.31;;;16.06;100.00
18022;BME280;9136;48.822;7.966;2023-07-31T01:53:45;100181.69;;;16.10;100.00
18022;BME280;9136;48.822;7.966;2023-07-31T01:56:40;100203.66;;;16.27;100.00
18022;BME280;9136;48.822;7.966;2023-07-31T01:59:31;100185.28;;;16.24;100.00
18022;BME280;9136;48.822;7.966;2023-07-31T02:02:34;100188.38;;;16.33;100.00
18022;BME280;9136;48.822;7.966;2023-07-31T02:05:23;100187.59;;;16.15;100.00
18022;BME280;9136;48.822;7.966;2023-07-31T02:08:17;100201.25;;;16.39;100.00
18022;BME280;9136;48.822;7.966;2023-07-31T02:11:08;100179.03;;;16.25;100.00
18022;BME280;9136;48.822;7.966;2023-07-31T02:13:56;100201.84;;;16.44;100.00
18022;BME280;9136;48.822;7.966;2023-07-31T02:16:45;100171.00;;;16.27;100.00
18022;BME280;9136;48.822;7.966;2023-07-31T02:19:39;100162.00;;;16.29;100.00
18022;BME280;9136;48.822;7.966;2023-07-31T02:22:37;100155.38;;;16.22;100.00
18022;BME280;9136;48.822;7.966;2023-07-31T02:25:31;100141.84;;;16.11;100.00
18022;BME280;9136;48.822;7.966;2023-07-31T02:28:22;100168.00;;;16.33;100.00
18022;BME280;9136;48.822;7.966;2023-07-31T02:31:10;100164.50;;;16.33;100.00
18022;BME280;9136;48.822;7.966;2023-07-31T02:34:03;100162.34;;;16.39;100.00
18022;BME280;9136;48.822;7.966;2023-07-31T02:37:21;100158.06;;;16.37;100.00
18022;BME280;9136;48.822;7.966;2023-07-31T02:40:19;100186.09;;;16.56;100.00
18022;BME280;9136;48.822;7.966;2023-07-31T02:43:19;100191.16;;;16.45;100.00
18022;BME280;9136;48.822;7.966;2023-07-31T02:46:19;100166.63;;;16.42;100.00
18022;BME280;9136;48.822;7.966;2023-07-31T02:49:17;100151.59;;;16.26;100.00
18022;BME280;9136;48.822;7.966;2023-07-31T02:52:07;100158.41;;;16.30;100.00
18022;BME280;9136;48.822;7.966;2023-07-31T02:55:27;100164.75;;;16.28;100.00
18022;BME280;9136;48.822;7.966;2023-07-31T02:59:04;100149.53;;;16.31;100.00
18022;BME280;9136;48.822;7.966;2023-07-31T03:02:07;100175.34;;;16.44;100.00
18022;BME280;9136;48.822;7.966;2023-07-31T03:05:16;100160.19;;;16.46;100.00
18022;BME280;9136;48.822;7.966;2023-07-31T03:08:56;100172.50;;;16.47;100.00
18022;BME280;9136;48.822;7.966;2023-07-31T03:11:47;100157.53;;;16.46;100.00
18022;BME280;9136;48.822;7.966;2023-07-31T03:14:58;100150.88;;;16.39;100.00
18022;BME280;9136;48.822;7.966;2023-07-31T03:18:03;100158.41;;;16.46;100.00
18022;BME280;9136;48.822;7.966;2023-07-31T03:20:53;100175.84;;;16.50;100.00
18022;BME280;9136;48.822;7.966;2023-07-31T03:23:58;100161.94;;;16.31;100.00
18022;BME280;9136;48.822;7.966;2023-07-31T03:27:29;100143.63;;;16.26;100.00
18022;BME280;9136;48.822;7.966;2023-07-31T03:33:33;100158.88;;;16.23;100.00
18022;BME280;9136;48.822;7.966;2023-07-31T03:36:35;100150.31;;;16.18;100.00
18022;BME280;9136;48.822;7.966;2023-07-31T03:39:41;100156.66;;;16.31;100.00
18022;BME280;9136;48.822;7.966;2023-07-31T03:42:35;100165.94;;;16.38;100.00
18022;BME280;9136;48.822;7.966;2023-07-31T03:46:08;100160.16;;;16.16;100.00
18022;BME280;9136;48.822;7.966;2023-07-31T03:48:57;100184.88;;;16.32;100.00
18022;BME280;9136;48.822;7.966;2023-07-31T03:52:01;100170.06;;;16.28;100.00
18022;BME280;9136;48.822;7.966;2023-07-31T03:54:54;100157.19;;;16.06;100.00
18022;BME280;9136;48.822;7.966;2023-07-31T03:57:43;100145.44;;;16.10;100.00
18022;BME280;9136;48.822;7.966;2023-07-31T04:00:40;100165.38;;;16.17;100.00
18022;BME280;9136;48.822;7.966;2023-07-31T04:03:34;100173.41;;;16.31;100.00
18022;BME280;9136;48.822;7.966;2023-07-31T04:06:29;100155.09;;;16.27;100.00
18022;BME280;9136;48.822;7.966;2023-07-31T04:09:20;100147.34;;;16.24;100.00
18022;BME280;9136;48.822;7.966;2023-07-31T04:12:29;100148.00;;;16.27;100.00
18022;BME280;9136;48.822;7.966;2023-07-31T04:15:31;100158.25;;;16.34;100.00
18022;BME280;9136;48.822;7.966;2023-07-31T04:18:19;100170.38;;;16.38;100.00
18022;BME280;9136;48.822;7.966;2023-07-31T04:21:07;100159.53;;;16.42;100.00
18022;BME280;9136;48.822;7.966;2023-07-31T04:23:56;100174.13;;;16.49;100.00
18022;BME280;9136;48.822;7.966;2023-07-31T04:26:52;100169.75;;;16.48;100.00
18022;BME280;9136;48.822;7.966;2023-07-31T04:29:51;100144.91;;;16.35;100.00
18022;BME280;9136;48.822;7.966;2023-07-31T04:32:41;100170.88;;;16.60;100.00
18022;BME280;9136;48.822;7.966;2023-07-31T04:35:31;100152.66;;;16.54;100.00
18022;BME280;9136;48.822;7.966;2023-07-31T04:41:00;100139.28;;;16.41;100.00
18022;BME280;9136;48.822;7.966;2023-07-31T04:42:14;100132.75;;;16.47;100.00
18022;BME280;9136;48.822;7.966;2023-07-31T04:45:08;100132.84;;;16.59;100.00
18022;BME280;9136;48.822;7.966;2023-07-31T04:47:56;100147.06;;;16.74;100.00
18022;BME280;9136;48.822;7.966;2023-07-31T04:50:44;100124.75;;;16.63;100.00
18022;BME280;9136;48.822;7.966;2023-07-31T04:53:33;100156.06;;;16.72;100.00
18022;BME280;9136;48.822;7.966;2023-07-31T04:56:27;100151.50;;;16.74;100.00
18022;BME280;9136;48.822;7.966;2023-07-31T04:59:17;100134.31;;;16.65;100.00
18022;BME280;9136;48.822;7.966;2023-07-31T05:02:11;100157.25;;;16.96;100.00
18022;BME280;9136;48.822;7.966;2023-07-31T05:05:04;100158.97;;;17.11;100.00
18022;BME280;9136;48.822;7.966;2023-07-31T05:07:52;100163.34;;;17.12;100.00
18022;BME280;9136;48.822;7.966;2023-07-31T05:10:42;100123.97;;;17.05;100.00
18022;BME280;9136;48.822;7.966;2023-07-31T05:13:33;100157.47;;;17.22;100.00
18022;BME280;9136;48.822;7.966;2023-07-31T05:16:25;100149.88;;;17.15;100.00
18022;BME280;9136;48.822;7.966;2023-07-31T05:19:17;100154.63;;;17.25;100.00
18022;BME280;9136;48.822;7.966;2023-07-31T05:22:09;100144.31;;;17.20;100.00
18022;BME280;9136;48.822;7.966;2023-07-31T05:24:57;100140.13;;;17.30;100.00
18022;BME280;9136;48.822;7.966;2023-07-31T05:27:47;100152.44;;;17.31;100.00
18022;BME280;9136;48.822;7.966;2023-07-31T05:30:40;100155.78;;;17.49;100.00
18022;BME280;9136;48.822;7.966;2023-07-31T05:33:36;100151.31;;;17.50;100.00
18022;BME280;9136;48.822;7.966;2023-07-31T05:36:28;100141.63;;;17.63;100.00
18022;BME280;9136;48.822;7.966;2023-07-31T05:39:21;100124.84;;;17.48;100.00
18022;BME280;9136;48.822;7.966;2023-07-31T05:42:13;100117.16;;;17.58;100.00
18022;BME280;9136;48.822;7.966;2023-07-31T05:45:01;100123.03;;;17.63;100.00
18022;BME280;9136;48.822;7.966;2023-07-31T05:47:52;100134.88;;;17.86;100.00
18022;BME280;9136;48.822;7.966;2023-07-31T05:50:43;100114.91;;;17.93;100.00
18022;BME280;9136;48.822;7.966;2023-07-31T05:53:42;100127.19;;;17.95;100.00
18022;BME280;9136;48.822;7.966;2023-07-31T05:56:40;100124.53;;;17.95;100.00
18022;BME280;9136;48.822;7.966;2023-07-31T05:59:29;100099.19;;;17.76;100.00
18022;BME280;9136;48.822;7.966;2023-07-31T06:02:27;100125.44;;;17.94;100.00
18022;BME280;9136;48.822;7.966;2023-07-31T06:05:26;100107.03;;;17.91;100.00
18022;BME280;9136;48.822;7.966;2023-07-31T06:08:18;100114.06;;;17.92;100.00
18022;BME280;9136;48.822;7.966;2023-07-31T06:11:11;100121.66;;;17.98;100.00
18022;BME280;9136;48.822;7.966;2023-07-31T06:14:21;100135.75;;;17.86;100.00
18022;BME280;9136;48.822;7.966;2023-07-31T06:17:10;100139.50;;;17.96;100.00
18022;BME280;9136;48.822;7.966;2023-07-31T06:20:04;100132.28;;;17.98;100.00
18022;BME280;9136;48.822;7.966;2023-07-31T06:22:55;100124.09;;;18.01;100.00
18022;BME280;9136;48.822;7.966;2023-07-31T06:25:54;100140.41;;;18.10;100.00
18022;BME280;9136;48.822;7.966;2023-07-31T06:28:50;100123.03;;;18.04;100.00
18022;BME280;9136;48.822;7.966;2023-07-31T06:31:43;100152.41;;;18.29;100.00
18022;BME280;9136;48.822;7.966;2023-07-31T06:34:37;100120.81;;;18.25;100.00
18022;BME280;9136;48.822;7.966;2023-07-31T06:37:30;100130.28;;;18.29;100.00
18022;BME280;9136;48.822;7.966;2023-07-31T06:40:23;100153.38;;;18.41;100.00
18022;BME280;9136;48.822;7.966;2023-07-31T06:43:11;100127.72;;;18.27;100.00
18022;BME280;9136;48.822;7.966;2023-07-31T06:46:10;100134.78;;;18.41;100.00
18022;BME280;9136;48.822;7.966;2023-07-31T06:49:02;100117.34;;;18.10;100.00
18022;BME280;9136;48.822;7.966;2023-07-31T06:52:08;100137.72;;;18.24;100.00
18022;BME280;9136;48.822;7.966;2023-07-31T06:55:01;100109.97;;;18.01;100.00
18022;BME280;9136;48.822;7.966;2023-07-31T06:57:52;100109.16;;;18.13;100.00
18022;BME280;9136;48.822;7.966;2023-07-31T07:00:40;100127.13;;;18.37;100.00
18022;BME280;9136;48.822;7.966;2023-07-31T07:03:35;100128.09;;;18.48;100.00
18022;BME280;9136;48.822;7.966;2023-07-31T07:06:24;100114.03;;;18.34;100.00
18022;BME280;9136;48.822;7.966;2023-07-31T07:09:16;100130.75;;;18.48;100.00
18022;BME280;9136;48.822;7.966;2023-07-31T07:12:06;100131.47;;;18.65;100.00
18022;BME280;9136;48.822;7.966;2023-07-31T07:14:55;100121.06;;;18.47;100.00
18022;BME280;9136;48.822;7.966;2023-07-31T07:17:47;100134.06;;;18.52;100.00
18022;BME280;9136;48.822;7.966;2023-07-31T07:20:37;100133.97;;;18.53;100.00
18022;BME280;9136;48.822;7.966;2023-07-31T07:23:25;100103.53;;;18.45;100.00
18022;BME280;9136;48.822;7.966;2023-07-31T07:26:17;100113.00;;;18.49;100.00
18022;BME280;9136;48.822;7.966;2023-07-31T07:29:15;100120.00;;;18.77;100.00
18022;BME280;9136;48.822;7.966;2023-07-31T07:32:04;100112.34;;;18.98;100.00
18022;BME280;9136;48.822;7.966;2023-07-31T07:34:57;100105.50;;;19.19;100.00
18022;BME280;9136;48.822;7.966;2023-07-31T07:37:50;100115.75;;;19.25;100.00
18022;BME280;9136;48.822;7.966;2023-07-31T07:40:42;100099.47;;;19.04;100.00
18022;BME280;9136;48.822;7.966;2023-07-31T07:43:43;100114.16;;;19.23;100.00
18022;BME280;9136;48.822;7.966;2023-07-31T08:01:03;100099.28;;;20.41;100.00
18022;BME280;9136;48.822;7.966;2023-07-31T08:03:52;100096.81;;;20.27;100.00
18022;BME280;9136;48.822;7.966;2023-07-31T08:06:42;100093.09;;;20.17;100.00
18022;BME280;9136;48.822;7.966;2023-07-31T08:10:01;100078.88;;;20.29;100.00
18022;BME280;9136;48.822;7.966;2023-07-31T08:13:40;100101.88;;;20.19;100.00
18022;BME280;9136;48.822;7.966;2023-07-31T08:16:33;100103.22;;;20.24;100.00
18022;BME280;9136;48.822;7.966;2023-07-31T08:22:37;100104.56;;;20.06;100.00
18022;BME280;9136;48.822;7.966;2023-07-31T08:25:44;100091.34;;;20.05;100.00
18022;BME280;9136;48.822;7.966;2023-07-31T08:29:06;100075.25;;;20.06;100.00
18022;BME280;9136;48.822;7.966;2023-07-31T08:32:30;100061.34;;;20.14;98.97
18022;BME280;9136;48.822;7.966;2023-07-31T08:35:26;100064.19;;;20.47;95.15
18022;BME280;9136;48.822;7.966;2023-07-31T08:38:53;100050.16;;;20.79;90.25
18022;BME280;9136;48.822;7.966;2023-07-31T08:51:24;100046.50;;;20.80;83.20
18022;BME280;9136;48.822;7.966;2023-07-31T08:54:11;100061.88;;;20.65;85.57
18022;BME280;9136;48.822;7.966;2023-07-31T08:57:27;100063.09;;;20.61;87.06
18022;BME280;9136;48.822;7.966;2023-07-31T09:00:19;100033.50;;;20.64;85.31
18022;BME280;9136;48.822;7.966;2023-07-31T09:03:14;100052.97;;;21.11;88.07
18022;BME280;9136;48.822;7.966;2023-07-31T09:06:09;100055.19;;;21.28;81.53
18022;BME280;9136;48.822;7.966;2023-07-31T09:09:04;100060.91;;;21.35;79.83
18022;BME280;9136;48.822;7.966;2023-07-31T09:12:08;100041.88;;;21.60;75.62
18022;BME280;9136;48.822;7.966;2023-07-31T09:14:58;100045.25;;;21.85;78.63
18022;BME280;9136;48.822;7.966;2023-07-31T09:17:51;100013.69;;;21.67;75.66
18022;BME280;9136;48.822;7.966;2023-07-31T09:21:00;100012.97;;;21.65;72.10
18022;BME280;9136;48.822;7.966;2023-07-31T09:23:57;100011.28;;;21.96;71.91
18022;BME280;9136;48.822;7.966;2023-07-31T09:26:47;99998.53;;;21.89;72.33
18022;BME280;9136;48.822;7.966;2023-07-31T09:29:36;100008.22;;;22.12;71.25
18022;BME280;9136;48.822;7.966;2023-07-31T09:32:31;99994.25;;;22.30;72.24
18022;BME280;9136;48.822;7.966;2023-07-31T09:35:22;100003.22;;;22.28;67.11
18022;BME280;9136;48.822;7.966;2023-07-31T09:38:12;100004.44;;;22.04;65.37
18022;BME280;9136;48.822;7.966;2023-07-31T09:41:05;100023.44;;;22.33;67.90
18022;BME280;9136;48.822;7.966;2023-07-31T09:43:55;100018.72;;;22.25;66.06
18022;BME280;9136;48.822;7.966;2023-07-31T09:46:44;100008.84;;;22.25;66.52
18022;BME280;9136;48.822;7.966;2023-07-31T09:49:37;100008.00;;;22.46;66.95
18022;BME280;9136;48.822;7.966;2023-07-31T09:52:26;99994.09;;;22.52;65.74
18022;BME280;9136;48.822;7.966;2023-07-31T09:55:26;99997.09;;;22.38;66.53
18022;BME280;9136;48.822;7.966;2023-07-31T09:58:21;99999.59;;;23.02;63.98
18022;BME280;9136;48.822;7.966;2023-07-31T10:01:10;99982.75;;;23.30;66.80
18022;BME280;9136;48.822;7.966;2023-07-31T10:03:59;99979.63;;;23.25;62.66
18022;BME280;9136;48.822;7.966;2023-07-31T10:06:51;99997.59;;;22.94;63.53
18022;BME280;9136;48.822;7.966;2023-07-31T10:09:41;100003.69;;;22.54;68.40
18022;BME280;9136;48.822;7.966;2023-07-31T10:12:32;99990.47;;;22.83;65.80
18022;BME280;9136;48.822;7.966;2023-07-31T10:15:22;99991.06;;;22.66;68.79
18022;BME280;9136;48.822;7.966;2023-07-31T10:18:11;100000.03;;;22.55;67.51
18022;BME280;9136;48.822;7.966;2023-07-31T10:21:00;99985.84;;;22.65;63.57
18022;BME280;9136;48.822;7.966;2023-07-31T10:23:48;99994.00;;;22.84;65.48
18022;BME280;9136;48.822;7.966;2023-07-31T10:26:37;99992.56;;;22.80;64.78
18022;BME280;9136;48.822;7.966;2023-07-31T10:29:27;99974.84;;;23.19;62.92
18022;BME280;9136;48.822;7.966;2023-07-31T10:32:17;99981.84;;;23.60;62.06
18022;BME280;9136;48.822;7.966;2023-07-31T10:35:11;99971.31;;;23.19;62.50
18022;BME280;9136;48.822;7.966;2023-07-31T10:38:09;99983.81;;;22.99;67.08
18022;BME280;9136;48.822;7.966;2023-07-31T10:41:09;99993.88;;;23.26;64.58
18022;BME280;9136;48.822;7.966;2023-07-31T10:43:58;99978.56;;;23.47;65.59
18022;BME280;9136;48.822;7.966;2023-07-31T10:46:51;99983.84;;;23.78;59.59
18022;BME280;9136;48.822;7.966;2023-07-31T10:49:46;99994.16;;;23.82;59.41
18022;BME280;9136;48.822;7.966;2023-07-31T10:52:53;99975.25;;;23.74;59.97
18022;BME280;9136;48.822;7.966;2023-07-31T10:55:56;99972.13;;;24.08;57.89
18022;BME280;9136;48.822;7.966;2023-07-31T11:00:14;99985.69;;;24.06;59.28
18022;BME280;9136;48.822;7.966;2023-07-31T11:06:04;99972.44;;;23.76;58.54
18022;BME280;9136;48.822;7.966;2023-07-31T11:10:49;99985.53;;;23.59;58.26
18022;BME280;9136;48.822;7.966;2023-07-31T11:13:04;99970.38;;;23.39;59.85
18022;BME280;9136;48.822;7.966;2023-07-31T11:16:14;99968.75;;;23.86;60.19
18022;BME280;9136;48.822;7.966;2023-07-31T11:19:18;99962.94;;;24.01;60.33
18022;BME280;9136;48.822;7.966;2023-07-31T11:29:36;99960.13;;;23.63;56.63
18022;BME280;9136;48.822;7.966;2023-07-31T11:36:29;99949.41;;;23.83;55.47
18022;BME280;9136;48.822;7.966;2023-07-31T11:40:00;99941.19;;;24.13;56.70
18022;BME280;9136;48.822;7.966;2023-07-31T11:43:17;99942.06;;;24.98;51.46
18022;BME280;9136;48.822;7.966;2023-07-31T11:46:41;99925.97;;;24.88;51.90
18022;BME280;9136;48.822;7.966;2023-07-31T11:50:19;99924.59;;;26.62;47.94
18022;BME280;9136;48.822;7.966;2023-07-31T11:57:08;99908.22;;;24.40;55.89
18022;BME280;9136;48.822;7.966;2023-07-31T12:00:29;99890.84;;;24.44;57.56
18022;BME280;9136;48.822;7.966;2023-07-31T12:07:21;99905.81;;;25.11;51.03
18022;BME280;9136;48.822;7.966;2023-07-31T12:14:08;99889.31;;;26.21;49.62
18022;BME280;9136;48.822;7.966;2023-07-31T12:17:17;99898.41;;;26.20;48.89
18022;BME280;9136;48.822;7.966;2023-07-31T16:33:33;59559.31;;;-143.99;100.00
18022;BME280;9136;48.822;7.966;2023-07-31T16:36:27;59559.31;;;-143.99;100.00
18022;BME280;9136;48.822;7.966;2023-07-31T16:42:45;59559.31;;;-143.99;100.00
18022;BME280;9136;48.822;7.966;2023-07-31T16:45:41;59559.31;;;-143.99;100.00
18022;BME280;9136;48.822;7.966;2023-07-31T16:48:49;59559.31;;;-143.99;100.00
18022;BME280;9136;48.822;7.966;2023-07-31T16:51:38;59559.31;;;-143.99;100.00
18022;BME280;9136;48.822;7.966;2023-07-31T16:54:33;59559.31;;;-143.99;100.00
18022;BME280;9136;48.822;7.966;2023-07-31T16:57:26;59559.31;;;-143.99;100.00
18022;BME280;9136;48.822;7.966;2023-07-31T17:00:19;59559.31;;;-143.99;100.00
18022;BME280;9136;48.822;7.966;2023-07-31T17:03:11;59559.31;;;-143.99;100.00
18022;BME280;9136;48.822;7.966;2023-07-31T17:06:07;59559.31;;;-143.99;100.00
18022;BME280;9136;48.822;7.966;2023-07-31T17:09:12;59559.31;;;-143.99;100.00
18022;BME280;9136;48.822;7.966;2023-07-31T17:12:08;59559.31;;;-143.99;100.00
18022;BME280;9136;48.822;7.966;2023-07-31T17:15:07;59559.31;;;-143.99;100.00
18022;BME280;9136;48.822;7.966;2023-07-31T17:17:58;59559.31;;;-143.99;100.00
18022;BME280;9136;48.822;7.966;2023-07-31T17:21:11;59559.31;;;-143.99;100.00
18022;BME280;9136;48.822;7.966;2023-07-31T17:23:59;59559.31;;;-143.99;100.00
18022;BME280;9136;48.822;7.966;2023-07-31T17:26:54;59559.31;;;-143.99;100.00
18022;BME280;9136;48.822;7.966;2023-07-31T17:29:43;59559.31;;;-143.99;100.00
18022;BME280;9136;48.822;7.966;2023-07-31T17:32:38;59559.31;;;-143.99;100.00
18022;BME280;9136;48.822;7.966;2023-07-31T17:35:33;59559.31;;;-143.99;100.00
18022;BME280;9136;48.822;7.966;2023-07-31T17:38:24;59559.31;;;-143.99;100.00
18022;BME280;9136;48.822;7.966;2023-07-31T17:41:11;59559.31;;;-143.99;100.00
18022;BME280;9136;48.822;7.966;2023-07-31T17:43:59;59559.31;;;-143.99;100.00
18022;BME280;9136;48.822;7.966;2023-07-31T17:46:48;59559.31;;;-143.99;100.00
18022;BME280;9136;48.822;7.966;2023-07-31T17:49:37;59559.31;;;-143.99;100.00
18022;BME280;9136;48.822;7.966;2023-07-31T17:52:25;59559.31;;;-143.99;100.00
18022;BME280;9136;48.822;7.966;2023-07-31T17:55:14;59559.31;;;-143.99;100.00
18022;BME280;9136;48.822;7.966;2023-07-31T17:58:02;59559.31;;;-143.99;100.00
18022;BME280;9136;48.822;7.966;2023-07-31T18:00:51;59559.31;;;-143.99;100.00
18022;BME280;9136;48.822;7.966;2023-07-31T18:03:38;59559.31;;;-143.99;100.00
18022;BME280;9136;48.822;7.966;2023-07-31T18:06:26;59559.31;;;-143.99;100.00
18022;BME280;9136;48.822;7.966;2023-07-31T18:09:16;59559.31;;;-143.99;100.00
18022;BME280;9136;48.822;7.966;2023-07-31T18:12:06;59559.31;;;-143.99;100.00
18022;BME280;9136;48.822;7.966;2023-07-31T18:14:54;59559.31;;;-143.99;100.00
18022;BME280;9136;48.822;7.966;2023-07-31T18:17:42;59559.31;;;-143.99;100.00
18022;BME280;9136;48.822;7.966;2023-07-31T18:20:30;59559.31;;;-143.99;100.00
18022;BME280;9136;48.822;7.966;2023-07-31T18:23:17;59559.31;;;-143.99;100.00
18022;BME280;9136;48.822;7.966;2023-07-31T18:26:07;59559.31;;;-143.99;100.00
18022;BME280;9136;48.822;7.966;2023-07-31T18:28:56;59559.31;;;-143.99;100.00
18022;BME280;9136;48.822;7.966;2023-07-31T18:31:44;59559.31;;;-143.99;100.00
18022;BME280;9136;48.822;7.966;2023-07-31T18:34:32;59559.31;;;-143.99;100.00
18022;BME280;9136;48.822;7.966;2023-07-31T18:37:20;59559.31;;;-143.99;100.00
18022;BME280;9136;48.822;7.966;2023-07-31T18:40:09;59559.31;;;-143.99;100.00
18022;BME280;9136;48.822;7.966;2023-07-31T18:42:57;59559.31;;;-143.99;100.00
18022;BME280;9136;48.822;7.966;2023-07-31T18:45:46;59559.31;;;-143.99;100.00
18022;BME280;9136;48.822;7.966;2023-07-31T18:48:34;59559.31;;;-143.99;100.00
18022;BME280;9136;48.822;7.966;2023-07-31T18:51:22;59559.31;;;-143.99;100.00
18022;BME280;9136;48.822;7.966;2023-07-31T18:54:09;59559.31;;;-143.99;100.00
18022;BME280;9136;48.822;7.966;2023-07-31T18:56:57;59559.31;;;-143.99;100.00
18022;BME280;9136;48.822;7.966;2023-07-31T18:59:45;59559.31;;;-143.99;100.00
18022;BME280;9136;48.822;7.966;2023-07-31T19:02:34;59559.31;;;-143.99;100.00
18022;BME280;9136;48.822;7.966;2023-07-31T19:05:24;59559.31;;;-143.99;100.00
18022;BME280;9136;48.822;7.966;2023-07-31T19:08:12;59559.31;;;-143.99;100.00
18022;BME280;9136;48.822;7.966;2023-07-31T19:11:02;59559.31;;;-143.99;100.00
18022;BME280;9136;48.822;7.966;2023-07-31T19:13:51;59559.31;;;-143.99;100.00
18022;BME280;9136;48.822;7.966;2023-07-31T19:16:39;59559.31;;;-143.99;100.00
18022;BME280;9136;48.822;7.966;2023-07-31T19:19:32;59559.31;;;-143.99;100.00
18022;BME280;9136;48.822;7.966;2023-07-31T19:22:19;59559.31;;;-143.99;100.00
18022;BME280;9136;48.822;7.966;2023-07-31T19:25:07;59559.31;;;-143.99;100.00
18022;BME280;9136;48.822;7.966;2023-07-31T19:27:55;59559.31;;;-143.99;100.00
18022;BME280;9136;48.822;7.966;2023-07-31T19:30:44;59559.31;;;-143.99;100.00
18022;BME280;9136;48.822;7.966;2023-07-31T19:33:32;59559.31;;;-143.99;100.00
18022;BME280;9136;48.822;7.966;2023-07-31T19:36:23;59559.31;;;-143.99;100.00
18022;BME280;9136;48.822;7.966;2023-07-31T19:39:10;59559.31;;;-143.99;100.00
18022;BME280;9136;48.822;7.966;2023-07-31T19:41:58;59559.31;;;-143.99;100.00
18022;BME280;9136;48.822;7.966;2023-07-31T19:44:46;59559.31;;;-143.99;100.00
18022;BME280;9136;48.822;7.966;2023-07-31T19:47:34;59559.31;;;-143.99;100.00
18022;BME280;9136;48.822;7.966;2023-07-31T19:50:24;59559.31;;;-143.99;100.00
18022;BME280;9136;48.822;7.966;2023-07-31T19:53:14;59559.31;;;-143.99;100.00
18022;BME280;9136;48.822;7.966;2023-07-31T19:56:01;59559.31;;;-143.99;100.00
18022;BME280;9136;48.822;7.966;2023-07-31T19:58:50;59559.31;;;-143.99;100.00
18022;BME280;9136;48.822;7.966;2023-07-31T20:01:38;59559.31;;;-143.99;100.00
18022;BME280;9136;48.822;7.966;2023-07-31T20:04:26;59559.31;;;-143.99;100.00
18022;BME280;9136;48.822;7.966;2023-07-31T20:07:14;59559.31;;;-143.99;100.00
18022;BME280;9136;48.822;7.966;2023-07-31T20:10:03;59559.31;;;-143.99;100.00
18022;BME280;9136;48.822;7.966;2023-07-31T20:12:53;59559.31;;;-143.99;100.00
18022;BME280;9136;48.822;7.966;2023-07-31T20:15:42;59559.31;;;-143.99;100.00
18022;BME280;9136;48.822;7.966;2023-07-31T20:18:31;59559.31;;;-143.99;100.00
18022;BME280;9136;48.822;7.966;2023-07-31T20:21:20;59559.31;;;-143.99;100.00
18022;BME280;9136;48.822;7.966;2023-07-31T20:24:10;59559.31;;;-143.99;100.00
18022;BME280;9136;48.822;7.966;2023-07-31T20:27:00;59559.31;;;-143.99;100.00
18022;BME280;9136;48.822;7.966;2023-07-31T20:29:48;59559.31;;;-143.99;100.00
18022;BME280;9136;48.822;7.966;2023-07-31T20:32:39;59559.31;;;-143.99;100.00